sensor_id;sensor_type;location;lat;lon;timestamp;pressure;altitude;pressure_sealevel;temperature;humidity
70458;BME280;57919;56.194;95.716;2022-08-19T00:07:14;98521.19;;;11.56;71.11
70458;BME280;57919;56.194;95.716;2022-08-19T00:17:16;98510.72;;;11.61;71.27
70458;BME280;57919;56.194;95.716;2022-08-19T00:27:19;98509.13;;;11.76;71.36
70458;BME280;57919;56.194;95.716;2022-08-19T00:37:22;98492.50;;;11.71;71.58
70458;BME280;57919;56.194;95.716;2022-08-19T00:47:24;98502.41;;;11.80;71.49
70458;BME280;57919;56.194;95.716;2022-08-19T00:57:30;98502.69;;;12.03;71.29
70458;BME280;57919;56.194;95.716;2022-08-19T01:07:35;98504.28;;;12.14;70.95
70458;BME280;57919;56.194;95.716;2022-08-19T01:17:39;98498.50;;;12.09;71.26
70458;BME280;57919;56.194;95.716;2022-08-19T01:27:44;98506.31;;;12.12;71.70
70458;BME280;57919;56.194;95.716;2022-08-19T01:37:52;98512.38;;;12.06;72.03
70458;BME280;57919;56.194;95.716;2022-08-19T01:47:57;98519.00;;;12.11;71.96
70458;BME280;57919;56.194;95.716;2022-08-19T01:58:02;98513.78;;;12.18;72.19
70458;BME280;57919;56.194;95.716;2022-08-19T02:08:05;98500.91;;;12.20;71.98
70458;BME280;57919;56.194;95.716;2022-08-19T02:18:08;98512.41;;;12.14;72.22
70458;BME280;57919;56.194;95.716;2022-08-19T02:28:11;98508.34;;;12.18;72.79
70458;BME280;57919;56.194;95.716;2022-08-19T02:38:14;98512.81;;;12.27;72.85
70458;BME280;57919;56.194;95.716;2022-08-19T02:48:28;98500.34;;;12.50;72.49
70458;BME280;57919;56.194;95.716;2022-08-19T02:58:30;98508.53;;;12.75;72.41
70458;BME280;57919;56.194;95.716;2022-08-19T03:08:32;98509.22;;;12.77;72.62
70458;BME280;57919;56.194;95.716;2022-08-19T03:18:34;98512.94;;;12.76;72.97
70458;BME280;57919;56.194;95.716;2022-08-19T03:28:36;98510.75;;;12.79;73.04
70458;BME280;57919;56.194;95.716;2022-08-19T03:38:41;98510.66;;;13.21;72.80
70458;BME280;57919;56.194;95.716;2022-08-19T03:48:44;98510.59;;;13.86;71.71
70458;BME280;57919;56.194;95.716;2022-08-19T03:58:46;98518.06;;;13.84;71.51
70458;BME280;57919;56.194;95.716;2022-08-19T04:08:50;98525.44;;;13.43;71.81
70458;BME280;57919;56.194;95.716;2022-08-19T04:18:52;98526.97;;;13.30;72.16
70458;BME280;57919;56.194;95.716;2022-08-19T04:28:55;98527.47;;;13.25;72.46
70458;BME280;57919;56.194;95.716;2022-08-19T04:38:59;98533.25;;;13.46;72.28
70458;BME280;57919;56.194;95.716;2022-08-19T04:49:03;98526.94;;;13.62;72.08
70458;BME280;57919;56.194;95.716;2022-08-19T04:59:07;98525.22;;;13.77;71.86
70458;BME280;57919;56.194;95.716;2022-08-19T05:09:09;98527.19;;;14.08;71.14
70458;BME280;57919;56.194;95.716;2022-08-19T05:19:11;98515.41;;;14.94;69.43
70458;BME280;57919;56.194;95.716;2022-08-19T05:29:33;98514.41;;;15.17;68.62
70458;BME280;57919;56.194;95.716;2022-08-19T05:39:38;98521.16;;;15.44;67.37
70458;BME280;57919;56.194;95.716;2022-08-19T05:49:42;98523.72;;;15.46;66.56
70458;BME280;57919;56.194;95.716;2022-08-19T05:59:45;98524.41;;;15.25;67.17
70458;BME280;57919;56.194;95.716;2022-08-19T06:09:49;98528.50;;;14.98;67.34
70458;BME280;57919;56.194;95.716;2022-08-19T06:19:51;98537.88;;;14.96;67.24
70458;BME280;57919;56.194;95.716;2022-08-19T06:29:53;98544.13;;;15.04;66.25
70458;BME280;57919;56.194;95.716;2022-08-19T06:39:55;98542.97;;;15.22;65.83
70458;BME280;57919;56.194;95.716;2022-08-19T06:49:58;98540.00;;;15.54;65.66
70458;BME280;57919;56.194;95.716;2022-08-19T07:00:06;98534.22;;;16.39;64.26
70458;BME280;57919;56.194;95.716;2022-08-19T07:10:12;98526.81;;;16.84;62.31
70458;BME280;57919;56.194;95.716;2022-08-19T07:20:14;98531.47;;;17.04;61.65
70458;BME280;57919;56.194;95.716;2022-08-19T07:30:17;98533.59;;;17.66;59.65
70458;BME280;57919;56.194;95.716;2022-08-19T07:40:19;98525.28;;;18.09;59.13
70458;BME280;57919;56.194;95.716;2022-08-19T07:50:21;98530.78;;;17.38;59.78
70458;BME280;57919;56.194;95.716;2022-08-19T08:00:23;98535.13;;;16.75;60.97
70458;BME280;57919;56.194;95.716;2022-08-19T08:10:25;98537.88;;;16.75;60.88
70458;BME280;57919;56.194;95.716;2022-08-19T08:20:27;98538.63;;;16.69;60.46
70458;BME280;57919;56.194;95.716;2022-08-19T08:30:30;98541.63;;;16.60;61.09
70458;BME280;57919;56.194;95.716;2022-08-19T08:50:45;98537.56;;;16.85;60.64
70458;BME280;57919;56.194;95.716;2022-08-19T09:00:50;98538.94;;;17.74;58.67
70458;BME280;57919;56.194;95.716;2022-08-19T09:10:55;98523.25;;;17.90;58.52
70458;BME280;57919;56.194;95.716;2022-08-19T09:20:58;98535.16;;;17.75;57.63
70458;BME280;57919;56.194;95.716;2022-08-19T09:31:00;98546.72;;;17.14;58.87
70458;BME280;57919;56.194;95.716;2022-08-19T09:41:14;98557.44;;;16.79;60.05
70458;BME280;57919;56.194;95.716;2022-08-19T09:51:21;98563.78;;;16.65;60.47
70458;BME280;57919;56.194;95.716;2022-08-19T10:01:26;98559.50;;;16.92;60.31
70458;BME280;57919;56.194;95.716;2022-08-19T10:11:29;98542.03;;;17.29;59.68
70458;BME280;57919;56.194;95.716;2022-08-19T10:32:28;98556.72;;;16.70;60.08
70458;BME280;57919;56.194;95.716;2022-08-19T10:42:31;98558.50;;;16.34;60.45
70458;BME280;57919;56.194;95.716;2022-08-19T10:52:33;98544.94;;;16.11;60.94
70458;BME280;57919;56.194;95.716;2022-08-19T11:02:35;98551.81;;;16.22;61.27
70458;BME280;57919;56.194;95.716;2022-08-19T11:12:37;98543.06;;;16.11;60.88
70458;BME280;57919;56.194;95.716;2022-08-19T11:22:42;98539.72;;;15.87;61.37
70458;BME280;57919;56.194;95.716;2022-08-19T11:32:44;98537.53;;;15.67;61.75
70458;BME280;57919;56.194;95.716;2022-08-19T11:42:48;98533.50;;;15.55;61.75
70458;BME280;57919;56.194;95.716;2022-08-19T11:52:57;98538.56;;;15.21;62.83
70458;BME280;57919;56.194;95.716;2022-08-19T12:02:59;98535.41;;;15.09;62.83
70458;BME280;57919;56.194;95.716;2022-08-19T12:13:01;98547.25;;;14.93;63.40
70458;BME280;57919;56.194;95.716;2022-08-19T12:23:04;98541.06;;;14.76;63.59
70458;BME280;57919;56.194;95.716;2022-08-19T12:33:07;98539.59;;;14.66;64.15
70458;BME280;57919;56.194;95.716;2022-08-19T12:43:09;98556.00;;;14.49;64.46
70458;BME280;57919;56.194;95.716;2022-08-19T12:53:13;98562.13;;;14.43;65.06
70458;BME280;57919;56.194;95.716;2022-08-19T13:03:16;98574.88;;;14.35;65.15
70458;BME280;57919;56.194;95.716;2022-08-19T13:13:18;98562.53;;;14.16;65.70
70458;BME280;57919;56.194;95.716;2022-08-19T13:23:20;98580.06;;;14.05;66.19
70458;BME280;57919;56.194;95.716;2022-08-19T13:33:22;98585.00;;;13.94;66.61
70458;BME280;57919;56.194;95.716;2022-08-19T13:43:27;98593.00;;;13.87;67.07
70458;BME280;57919;56.194;95.716;2022-08-19T13:53:29;98604.41;;;13.82;67.07
70458;BME280;57919;56.194;95.716;2022-08-19T14:03:33;98599.66;;;13.76;67.65
70458;BME280;57919;56.194;95.716;2022-08-19T14:13:35;98598.44;;;13.79;68.07
70458;BME280;57919;56.194;95.716;2022-08-19T14:23:38;98584.19;;;13.61;68.58
70458;BME280;57919;56.194;95.716;2022-08-19T14:33:40;98600.16;;;13.64;69.54
70458;BME280;57919;56.194;95.716;2022-08-19T14:43:43;98605.09;;;13.52;69.89
70458;BME280;57919;56.194;95.716;2022-08-19T14:53:48;98607.13;;;13.42;70.46
70458;BME280;57919;56.194;95.716;2022-08-19T15:03:50;98603.38;;;13.35;70.62
70458;BME280;57919;56.194;95.716;2022-08-19T15:13:56;98596.91;;;13.28;70.88
70458;BME280;57919;56.194;95.716;2022-08-19T15:23:59;98607.25;;;13.24;71.60
70458;BME280;57919;56.194;95.716;2022-08-19T15:34:02;98597.06;;;13.18;71.88
70458;BME280;57919;56.194;95.716;2022-08-19T15:44:10;98610.81;;;13.16;72.16
70458;BME280;57919;56.194;95.716;2022-08-19T15:54:16;98605.22;;;13.18;72.71
70458;BME280;57919;56.194;95.716;2022-08-19T16:04:22;98608.88;;;13.09;72.88
70458;BME280;57919;56.194;95.716;2022-08-19T16:14:42;98609.88;;;12.91;73.44
70458;BME280;57919;56.194;95.716;2022-08-19T16:24:44;98598.84;;;12.93;73.49
70458;BME280;57919;56.194;95.716;2022-08-19T16:34:46;98602.72;;;12.82;73.96
70458;BME280;57919;56.194;95.716;2022-08-19T16:44:48;98618.19;;;12.98;73.93
70458;BME280;57919;56.194;95.716;2022-08-19T16:54:50;98618.19;;;12.98;73.89
70458;BME280;57919;56.194;95.716;2022-08-19T17:04:53;98613.44;;;12.92;74.32
70458;BME280;57919;56.194;95.716;2022-08-19T17:14:56;98606.97;;;12.85;74.54
70458;BME280;57919;56.194;95.716;2022-08-19T17:24:58;98611.53;;;12.84;74.65
70458;BME280;57919;56.194;95.716;2022-08-19T17:35:01;98602.19;;;12.79;74.94
70458;BME280;57919;56.194;95.716;2022-08-19T17:45:05;98580.63;;;12.69;75.27
70458;BME280;57919;56.194;95.716;2022-08-19T17:55:08;98594.41;;;12.84;74.92
70458;BME280;57919;56.194;95.716;2022-08-19T18:05:11;98604.41;;;12.83;75.34
70458;BME280;57919;56.194;95.716;2022-08-19T18:15:14;98601.84;;;12.82;75.30
70458;BME280;57919;56.194;95.716;2022-08-19T18:25:23;98588.81;;;12.85;75.54
70458;BME280;57919;56.194;95.716;2022-08-19T18:35:29;98587.09;;;12.84;75.76
70458;BME280;57919;56.194;95.716;2022-08-19T18:45:31;98568.03;;;12.60;76.18
70458;BME280;57919;56.194;95.716;2022-08-19T18:55:52;98589.47;;;12.79;75.92
70458;BME280;57919;56.194;95.716;2022-08-19T19:05:55;98582.19;;;12.80;75.99
70458;BME280;57919;56.194;95.716;2022-08-19T19:15:57;98592.00;;;12.73;76.11
70458;BME280;57919;56.194;95.716;2022-08-19T19:26:01;98602.44;;;12.59;76.60
70458;BME280;57919;56.194;95.716;2022-08-19T19:36:03;98594.81;;;12.55;76.75
70458;BME280;57919;56.194;95.716;2022-08-19T19:46:05;98588.84;;;12.51;76.86
70458;BME280;57919;56.194;95.716;2022-08-19T19:56:07;98594.81;;;12.55;76.92
70458;BME280;57919;56.194;95.716;2022-08-19T20:06:12;98605.13;;;12.51;76.88
70458;BME280;57919;56.194;95.716;2022-08-19T20:16:14;98609.50;;;12.44;77.13
70458;BME280;57919;56.194;95.716;2022-08-19T20:26:16;98605.41;;;12.40;77.24
70458;BME280;57919;56.194;95.716;2022-08-19T20:36:19;98607.81;;;12.43;77.41
70458;BME280;57919;56.194;95.716;2022-08-19T20:46:21;98606.78;;;12.44;77.45
70458;BME280;57919;56.194;95.716;2022-08-19T20:56:23;98616.44;;;12.39;77.45
70458;BME280;57919;56.194;95.716;2022-08-19T21:06:25;98606.38;;;12.31;77.13
70458;BME280;57919;56.194;95.716;2022-08-19T21:16:27;98617.09;;;12.07;77.97
70458;BME280;57919;56.194;95.716;2022-08-19T21:26:29;98609.78;;;11.81;78.82
70458;BME280;57919;56.194;95.716;2022-08-19T21:36:31;98596.56;;;11.78;79.24
70458;BME280;57919;56.194;95.716;2022-08-19T21:46:33;98609.38;;;11.94;78.61
70458;BME280;57919;56.194;95.716;2022-08-19T21:56:35;98590.56;;;11.92;78.94
70458;BME280;57919;56.194;95.716;2022-08-19T22:06:38;98592.00;;;12.05;79.06
70458;BME280;57919;56.194;95.716;2022-08-19T22:16:40;98607.34;;;11.96;79.26
70458;BME280;57919;56.194;95.716;2022-08-19T22:26:43;98595.56;;;12.05;79.44
70458;BME280;57919;56.194;95.716;2022-08-19T22:36:45;98601.66;;;12.33;79.10
70458;BME280;57919;56.194;95.716;2022-08-19T22:46:47;98587.53;;;12.21;78.67
70458;BME280;57919;56.194;95.716;2022-08-19T22:56:49;98609.78;;;12.33;78.99
70458;BME280;57919;56.194;95.716;2022-08-19T23:06:52;98605.38;;;12.32;78.99
70458;BME280;57919;56.194;95.716;2022-08-19T23:16:54;98607.69;;;12.19;79.25
70458;BME280;57919;56.194;95.716;2022-08-19T23:26:56;98591.69;;;12.08;79.10
70458;BME280;57919;56.194;95.716;2022-08-19T23:37:16;98617.50;;;12.20;79.34
70458;BME280;57919;56.194;95.716;2022-08-19T23:47:19;98627.41;;;12.29;79.44
70458;BME280;57919;56.194;95.716;2022-08-19T23:57:21;98628.38;;;12.54;79.38
